createdAt,value
2024-02-03T00:00:06.413Z,9.270
2024-02-03T00:01:04.341Z,9.270
2024-02-03T00:02:04.905Z,9.286
2024-02-03T00:03:05.134Z,9.300
2024-02-03T00:04:05.213Z,9.306
2024-02-03T00:05:03.966Z,9.313
2024-02-03T00:06:04.153Z,9.311
2024-02-03T00:07:04.719Z,9.313
2024-02-03T00:08:04.531Z,9.302
2024-02-03T00:09:03.908Z,9.318
2024-02-03T00:10:04.589Z,9.321
2024-02-03T00:11:03.726Z,9.324
2024-02-03T00:12:04.185Z,9.326
2024-02-03T00:13:04.138Z,9.317
2024-02-03T00:14:06.175Z,9.326
2024-02-03T00:15:04.518Z,9.332
2024-02-03T00:16:04.466Z,9.345
2024-02-03T00:17:04.006Z,9.347
2024-02-03T00:18:03.702Z,9.357
2024-02-03T00:19:04.433Z,9.377
2024-02-03T00:20:04.682Z,9.404
2024-02-03T00:21:04.081Z,9.438
2024-02-03T00:22:04.378Z,9.446
2024-02-03T00:23:03.949Z,9.436
2024-02-03T00:24:04.802Z,9.439
2024-02-03T00:25:04.245Z,9.431
2024-02-03T00:26:03.903Z,9.430
2024-02-03T00:27:03.903Z,9.430
2024-02-03T00:28:03.584Z,9.435
2024-02-03T00:29:03.987Z,9.427
2024-02-03T00:30:04.296Z,9.439
2024-02-03T00:31:04.513Z,9.431
2024-02-03T00:32:03.944Z,9.414
2024-02-03T00:33:04.112Z,9.409
2024-02-03T00:34:04.284Z,9.420
2024-02-03T00:35:04.213Z,9.430
2024-02-03T00:36:03.602Z,9.436
2024-02-03T00:37:04.141Z,9.465
2024-02-03T00:38:04.381Z,9.489
2024-02-03T00:39:04.014Z,9.503
2024-02-03T00:40:03.920Z,9.505
2024-02-03T00:41:04.436Z,9.515
2024-02-03T00:42:03.804Z,9.516
2024-02-03T00:43:03.955Z,9.511
2024-02-03T00:44:04.403Z,9.506
2024-02-03T00:45:04.224Z,9.5
2024-02-03T00:46:04.590Z,9.496
2024-02-03T00:47:04.132Z,9.496
2024-02-03T00:48:04.889Z,9.503
2024-02-03T00:49:03.960Z,9.516
2024-02-03T00:50:04.463Z,9.521
2024-02-03T00:51:04.082Z,9.523
2024-02-03T00:52:04.857Z,9.508
2024-02-03T00:53:03.811Z,9.523
2024-02-03T00:54:03.818Z,9.528
2024-02-03T00:55:04.177Z,9.529
2024-02-03T00:56:03.658Z,9.539
2024-02-03T00:57:04.171Z,9.536
2024-02-03T00:58:04.577Z,9.539
2024-02-03T00:59:04.222Z,9.546
2024-02-03T01:00:05.983Z,9.558
2024-02-03T01:01:04.245Z,9.558
2024-02-03T01:02:04.909Z,9.558
2024-02-03T01:03:03.937Z,9.566
2024-02-03T01:04:04.559Z,9.563
2024-02-03T01:05:04.016Z,9.561
2024-02-03T01:06:04.765Z,9.561
2024-02-03T01:07:04.019Z,9.548
2024-02-03T01:08:04.627Z,9.555
2024-02-03T01:09:03.956Z,9.553
2024-02-03T01:10:04.754Z,9.550
2024-02-03T01:11:03.781Z,9.550
2024-02-03T01:12:04.268Z,9.558
2024-02-03T01:13:03.820Z,9.568
2024-02-03T01:14:04.245Z,9.573
2024-02-03T01:15:04.495Z,9.574
2024-02-03T01:16:04.271Z,9.566
2024-02-03T01:17:03.846Z,9.561
2024-02-03T01:18:04.756Z,9.543
2024-02-03T01:19:04.272Z,9.545
2024-02-03T01:20:04.272Z,9.539
2024-02-03T01:21:03.662Z,9.551
2024-02-03T01:22:04.080Z,9.553
2024-02-03T01:23:04.201Z,9.545
2024-02-03T01:24:04.111Z,9.541
2024-02-03T01:25:04.356Z,9.539
2024-02-03T01:26:04.790Z,9.553
2024-02-03T01:27:04.186Z,9.560
2024-02-03T01:28:04.469Z,9.553
2024-02-03T01:29:03.824Z,9.551
2024-02-03T01:30:04.692Z,9.546
2024-02-03T01:31:03.747Z,9.539
2024-02-03T01:32:04.516Z,9.533
2024-02-03T01:33:04.087Z,9.524
2024-02-03T01:34:05.234Z,9.526
2024-02-03T01:35:04.009Z,9.520
2024-02-03T01:36:04.276Z,9.515
2024-02-03T01:37:04.530Z,9.517
2024-02-03T01:38:04.063Z,9.520
2024-02-03T01:39:04.271Z,9.502
2024-02-03T01:40:04.053Z,9.516
2024-02-03T01:41:04.343Z,9.511
2024-02-03T01:42:03.865Z,9.501
2024-02-03T01:43:04.079Z,9.5
2024-02-03T01:44:04.443Z,9.512
2024-02-03T01:45:05.068Z,9.507
2024-02-03T01:46:03.736Z,9.512
2024-02-03T01:47:04.274Z,9.518
2024-02-03T01:48:04.236Z,9.520
2024-02-03T01:49:04.464Z,9.517
2024-02-03T01:50:04.549Z,9.510
2024-02-03T01:51:03.692Z,9.508
2024-02-03T01:52:03.728Z,9.512
2024-02-03T01:53:04.301Z,9.517
2024-02-03T01:54:04.035Z,9.527
2024-02-03T01:55:03.949Z,9.520
2024-02-03T01:56:04.406Z,9.513
2024-02-03T01:57:04.208Z,9.502
2024-02-03T01:58:04.156Z,9.491
2024-02-03T01:59:03.852Z,9.491
2024-02-03T02:00:05.869Z,9.491
2024-02-03T02:01:04.195Z,9.496
2024-02-03T02:02:04.512Z,9.516
2024-02-03T02:03:04.138Z,9.518
2024-02-03T02:04:04.349Z,9.513
2024-02-03T02:05:04.380Z,9.505
2024-02-03T02:06:03.809Z,9.5
2024-02-03T02:07:04.028Z,9.496
2024-02-03T02:08:03.813Z,9.473
2024-02-03T02:09:04.192Z,9.465
2024-02-03T02:10:04.481Z,9.471
2024-02-03T02:11:03.892Z,9.479
2024-02-03T02:12:04.022Z,9.473
2024-02-03T02:13:04.308Z,9.470
2024-02-03T02:14:04.858Z,9.458
2024-02-03T02:15:04.086Z,9.466
2024-02-03T02:16:04.346Z,9.473
2024-02-03T02:17:03.760Z,9.471
2024-02-03T02:18:03.989Z,9.478
2024-02-03T02:19:04.315Z,9.470
2024-02-03T02:20:04.589Z,9.460
2024-02-03T02:21:03.926Z,9.473
2024-02-03T02:22:03.916Z,9.483
2024-02-03T02:23:04.035Z,9.478
2024-02-03T02:24:04.125Z,9.475
2024-02-03T02:25:04.393Z,9.461
2024-02-03T02:26:03.712Z,9.454
2024-02-03T02:27:03.976Z,9.444
2024-02-03T02:28:04.180Z,9.436
2024-02-03T02:29:04.091Z,9.431
2024-02-03T02:30:04.715Z,9.421
2024-02-03T02:31:03.731Z,9.428
2024-02-03T02:32:04.261Z,9.430
2024-02-03T02:33:04.710Z,9.433
2024-02-03T02:34:03.828Z,9.425
2024-02-03T02:35:04.082Z,9.426
2024-02-03T02:36:04.424Z,9.423
2024-02-03T02:37:04.431Z,9.420
2024-02-03T02:38:03.642Z,9.433
2024-02-03T02:39:03.938Z,9.431
2024-02-03T02:40:04.264Z,9.433
2024-02-03T02:41:04.130Z,9.426
2024-02-03T02:42:04.179Z,9.421
2024-02-03T02:43:04.418Z,9.433
2024-02-03T02:44:03.784Z,9.430
2024-02-03T02:45:04.679Z,9.426
2024-02-03T02:46:04.022Z,9.431
2024-02-03T02:47:04.889Z,9.441
2024-02-03T02:48:05.000Z,9.441
2024-02-03T02:49:04.423Z,9.435
2024-02-03T02:50:04.488Z,9.421
2024-02-03T02:51:04.025Z,9.425
2024-02-03T02:52:04.258Z,9.425
2024-02-03T02:53:04.549Z,9.421
2024-02-03T02:54:03.925Z,9.425
2024-02-03T02:55:04.211Z,9.425
2024-02-03T02:56:03.361Z,9.425
2024-02-03T02:57:03.926Z,9.442
2024-02-03T02:58:04.084Z,9.442
2024-02-03T02:59:03.608Z,9.460
2024-02-03T03:00:05.582Z,9.468
2024-02-03T03:01:04.224Z,9.464
2024-02-03T03:02:04.677Z,9.458
2024-02-03T03:03:03.961Z,9.452
2024-02-03T03:04:04.737Z,9.447
2024-02-03T03:05:03.962Z,9.444
2024-02-03T03:06:04.412Z,9.437
2024-02-03T03:07:03.827Z,9.454
2024-02-03T03:08:04.036Z,9.446
2024-02-03T03:09:04.357Z,9.454
2024-02-03T03:10:04.061Z,9.460
2024-02-03T03:11:03.758Z,9.464
2024-02-03T03:12:04.497Z,9.460
2024-02-03T03:13:04.159Z,9.466
2024-02-03T03:14:03.725Z,9.463
2024-02-03T03:15:04.754Z,9.460
2024-02-03T03:16:05.255Z,9.465
2024-02-03T03:17:05.492Z,9.473
2024-02-03T03:18:04.149Z,9.463
2024-02-03T03:19:04.655Z,9.449
2024-02-03T03:20:03.968Z,9.443
2024-02-03T03:21:04.053Z,9.451
2024-02-03T03:22:04.264Z,9.463
2024-02-03T03:23:04.512Z,9.470
2024-02-03T03:24:04.604Z,9.471
2024-02-03T03:25:03.951Z,9.473
2024-02-03T03:26:04.009Z,9.471
2024-02-03T03:27:04.334Z,9.470
2024-02-03T03:28:04.597Z,9.484
2024-02-03T03:29:03.756Z,9.5
2024-02-03T03:30:04.625Z,9.5
2024-02-03T03:31:03.681Z,9.484
2024-02-03T03:32:04.218Z,9.479
2024-02-03T03:33:04.226Z,9.484
2024-02-03T03:34:04.865Z,9.496
2024-02-03T03:35:04.391Z,9.510
2024-02-03T03:36:03.800Z,9.510
2024-02-03T03:37:04.421Z,9.503
2024-02-03T03:38:03.824Z,9.503
2024-02-03T03:39:04.201Z,9.508
2024-02-03T03:40:04.603Z,9.510
2024-02-03T03:41:04.044Z,9.508
2024-02-03T03:42:04.428Z,9.503
2024-02-03T03:43:04.412Z,9.501
2024-02-03T03:44:03.716Z,9.503
2024-02-03T03:45:04.723Z,9.505
2024-02-03T03:46:04.261Z,9.510
2024-02-03T03:47:03.809Z,9.515
2024-02-03T03:48:03.735Z,9.516
2024-02-03T03:49:04.307Z,9.526
2024-02-03T03:50:04.942Z,9.524
2024-02-03T03:51:04.495Z,9.526
2024-02-03T03:52:03.894Z,9.534
2024-02-03T03:53:04.062Z,9.534
2024-02-03T03:54:04.431Z,9.538
2024-02-03T03:55:04.042Z,9.531
2024-02-03T03:56:03.989Z,9.529
2024-02-03T03:57:04.397Z,9.520
2024-02-03T03:58:03.766Z,9.531
2024-02-03T03:59:03.969Z,9.529
2024-02-03T04:00:05.965Z,9.528
2024-02-03T04:01:04.247Z,9.529
2024-02-03T04:02:04.314Z,9.518
2024-02-03T04:03:04.054Z,9.516
2024-02-03T04:04:03.835Z,9.526
2024-02-03T04:05:04.067Z,9.523
2024-02-03T04:06:04.777Z,9.516
2024-02-03T04:07:04.201Z,9.520
2024-02-03T04:08:04.590Z,9.516
2024-02-03T04:09:03.533Z,9.524
2024-02-03T04:10:04.019Z,9.536
2024-02-03T04:11:03.682Z,9.533
2024-02-03T04:12:03.790Z,9.528
2024-02-03T04:13:04.268Z,9.528
2024-02-03T04:14:04.400Z,9.536
2024-02-03T04:15:03.944Z,9.545
2024-02-03T04:16:04.181Z,9.548
2024-02-03T04:17:03.953Z,9.546
2024-02-03T04:18:04.524Z,9.541
2024-02-03T04:19:05.024Z,9.534
2024-02-03T04:20:05.519Z,9.529
2024-02-03T04:21:04.322Z,9.546
2024-02-03T04:22:03.528Z,9.560
2024-02-03T04:23:03.536Z,9.573
2024-02-03T04:24:03.875Z,9.581
2024-02-03T04:25:04.648Z,9.586
2024-02-03T04:26:04.224Z,9.591
2024-02-03T04:27:04.519Z,9.591
2024-02-03T04:28:03.993Z,9.581
2024-02-03T04:29:04.298Z,9.578
2024-02-03T04:30:25.178Z,9.578
2024-02-03T04:31:04.223Z,9.578
2024-02-03T04:32:04.552Z,9.571
2024-02-03T04:33:04.753Z,9.588
2024-02-03T04:34:04.172Z,9.595
2024-02-03T04:35:04.322Z,9.604
2024-02-03T04:36:03.820Z,9.609
2024-02-03T04:37:04.143Z,9.598
2024-02-03T04:38:04.088Z,9.597
2024-02-03T04:39:03.824Z,9.600
2024-02-03T04:40:04.309Z,9.604
2024-02-03T04:41:03.914Z,9.608
2024-02-03T04:42:03.962Z,9.618
2024-02-03T04:43:04.384Z,9.633
2024-02-03T04:44:03.767Z,9.630
2024-02-03T04:45:04.515Z,9.630
2024-02-03T04:46:04.553Z,9.619
2024-02-03T04:47:04.852Z,9.609
2024-02-03T04:48:04.845Z,9.614
2024-02-03T04:49:04.324Z,9.625
2024-02-03T04:50:04.688Z,9.631
2024-02-03T04:51:03.988Z,9.619
2024-02-03T04:52:05.603Z,9.638
2024-02-03T04:53:03.906Z,9.659
2024-02-03T04:54:04.329Z,9.666
2024-02-03T04:55:03.895Z,9.668
2024-02-03T04:56:03.618Z,9.678
2024-02-03T04:57:03.923Z,9.688
2024-02-03T04:58:04.075Z,9.681
2024-02-03T04:59:04.605Z,9.678
2024-02-03T05:00:05.724Z,9.668
2024-02-03T05:01:04.349Z,9.658
2024-02-03T05:02:03.921Z,9.668
2024-02-03T05:03:04.485Z,9.664
2024-02-03T05:04:04.233Z,9.659
2024-02-03T05:05:04.672Z,9.653
2024-02-03T05:06:03.934Z,9.646
2024-02-03T05:07:04.685Z,9.643
2024-02-03T05:08:04.858Z,9.646
2024-02-03T05:09:04.096Z,9.653
2024-02-03T05:10:04.544Z,9.649
2024-02-03T05:11:03.981Z,9.653
2024-02-03T05:12:04.786Z,9.658
2024-02-03T05:13:03.897Z,9.649
2024-02-03T05:14:04.399Z,9.645
2024-02-03T05:15:07.116Z,9.630
2024-02-03T05:16:04.252Z,9.626
2024-02-03T05:17:03.888Z,9.635
2024-02-03T05:18:03.785Z,9.640
2024-02-03T05:19:03.988Z,9.643
2024-02-03T05:20:04.455Z,9.646
2024-02-03T05:21:03.728Z,9.659
2024-02-03T05:22:04.061Z,9.659
2024-02-03T05:23:04.298Z,9.659
2024-02-03T05:24:03.673Z,9.663
2024-02-03T05:25:04.537Z,9.658
2024-02-03T05:26:04.257Z,9.653
2024-02-03T05:27:03.859Z,9.651
2024-02-03T05:28:04.477Z,9.648
2024-02-03T05:29:03.588Z,9.646
2024-02-03T05:30:04.468Z,9.641
2024-02-03T05:31:04.168Z,9.646
2024-02-03T05:32:04.133Z,9.661
2024-02-03T05:33:04.761Z,9.659
2024-02-03T05:34:04.098Z,9.658
2024-02-03T05:35:04.127Z,9.676
2024-02-03T05:36:04.402Z,9.703
2024-02-03T05:37:04.590Z,9.704
2024-02-03T05:38:03.866Z,9.708
2024-02-03T05:39:03.964Z,9.713
2024-02-03T05:40:04.551Z,9.715
2024-02-03T05:41:03.671Z,9.710
2024-02-03T05:42:03.575Z,9.711
2024-02-03T05:43:04.029Z,9.725
2024-02-03T05:44:03.908Z,9.721
2024-02-03T05:45:04.568Z,9.713
2024-02-03T05:46:04.085Z,9.698
2024-02-03T05:47:04.122Z,9.676
2024-02-03T05:48:04.328Z,9.680
2024-02-03T05:49:04.340Z,9.694
2024-02-03T05:50:04.312Z,9.701
2024-02-03T05:51:03.686Z,9.701
2024-02-03T05:52:04.264Z,9.699
2024-02-03T05:53:07.609Z,9.704
2024-02-03T05:54:04.861Z,9.711
2024-02-03T05:55:04.435Z,9.707
2024-02-03T05:56:05.129Z,9.711
2024-02-03T05:57:03.713Z,9.731
2024-02-03T05:58:04.033Z,9.744
2024-02-03T05:59:36.048Z,9.774
2024-02-03T06:00:05.690Z,9.774
2024-02-03T06:01:04.918Z,9.779
2024-02-03T06:02:04.358Z,9.779
2024-02-03T06:03:03.637Z,9.765
2024-02-03T06:04:04.171Z,9.739
2024-02-03T06:05:04.777Z,9.751
2024-02-03T06:06:22.070Z,9.774
2024-02-03T06:07:04.265Z,9.772
2024-02-03T06:08:04.034Z,9.786
2024-02-03T06:09:04.321Z,9.788
2024-02-03T06:10:04.516Z,9.810
2024-02-03T06:11:04.104Z,9.829
2024-02-03T06:12:05.531Z,9.817
2024-02-03T06:13:08.316Z,9.816
2024-02-03T06:14:03.814Z,9.814
2024-02-03T06:15:04.592Z,9.800
2024-02-03T06:16:04.231Z,9.803
2024-02-03T06:17:04.194Z,9.815
2024-02-03T06:18:04.116Z,9.819
2024-02-03T06:19:04.286Z,9.824
2024-02-03T06:20:04.567Z,9.816
2024-02-03T06:21:03.728Z,9.805
2024-02-03T06:22:04.192Z,9.823
2024-02-03T06:23:03.569Z,9.831
2024-02-03T06:24:03.718Z,9.840
2024-02-03T06:25:04.231Z,9.840
2024-02-03T06:26:04.562Z,9.843
2024-02-03T06:27:03.935Z,9.854
2024-02-03T06:28:04.344Z,9.866
2024-02-03T06:29:03.694Z,9.866
2024-02-03T06:30:04.701Z,9.866
2024-02-03T06:31:05.932Z,9.871
2024-02-03T06:32:04.334Z,9.881
2024-02-03T06:33:04.230Z,9.895
2024-02-03T06:34:04.838Z,9.925
2024-02-03T06:35:04.196Z,9.949
2024-02-03T06:36:03.982Z,9.941
2024-02-03T06:37:03.936Z,9.938
2024-02-03T06:38:04.281Z,9.946
2024-02-03T06:39:03.921Z,9.939
2024-02-03T06:40:04.636Z,9.939
2024-02-03T06:41:03.676Z,9.949
2024-02-03T06:42:03.918Z,9.958
2024-02-03T06:43:03.982Z,9.956
2024-02-03T06:44:04.082Z,9.981
2024-02-03T06:45:05.783Z,10.01
2024-02-03T06:46:03.938Z,10.02
2024-02-03T06:47:04.530Z,10.00
2024-02-03T06:48:04.402Z,9.996
2024-02-03T06:49:04.682Z,10.01
2024-02-03T06:50:04.255Z,10.00
2024-02-03T06:51:03.793Z,10.00
2024-02-03T06:52:04.017Z,10.00
2024-02-03T06:53:04.078Z,9.996
2024-02-03T06:54:04.391Z,10.02
2024-02-03T06:55:04.415Z,10.03
2024-02-03T06:56:04.055Z,10.03
2024-02-03T06:57:04.324Z,10.05
2024-02-03T06:58:03.788Z,10.05
2024-02-03T06:59:03.824Z,10.04
2024-02-03T07:00:06.373Z,10.04
2024-02-03T07:01:06.600Z,10.03
2024-02-03T07:02:04.503Z,10.03
2024-02-03T07:03:04.173Z,10.02
2024-02-03T07:04:04.813Z,10.03
2024-02-03T07:05:04.235Z,10.00
2024-02-03T07:06:04.617Z,9.996
2024-02-03T07:07:04.130Z,10
2024-02-03T07:08:04.190Z,9.988
2024-02-03T07:09:04.543Z,9.993
2024-02-03T07:10:04.077Z,9.986
2024-02-03T07:11:03.831Z,9.993
2024-02-03T07:12:09.187Z,9.989
2024-02-03T07:13:05.214Z,9.998
2024-02-03T07:14:04.004Z,10.01
2024-02-03T07:15:04.965Z,10.02
2024-02-03T07:16:04.970Z,10.04
2024-02-03T07:17:04.762Z,10.04
2024-02-03T07:18:04.260Z,10.03
2024-02-03T07:19:04.678Z,10.04
2024-02-03T07:20:03.843Z,10.05
2024-02-03T07:21:04.526Z,10.05
2024-02-03T07:22:03.884Z,10.03
2024-02-03T07:23:03.968Z,10.03
2024-02-03T07:24:04.277Z,10.03
2024-02-03T07:25:03.934Z,10.03
2024-02-03T07:26:03.758Z,10.04
2024-02-03T07:27:03.902Z,10.07
2024-02-03T07:28:03.998Z,10.07
2024-02-03T07:29:04.255Z,10.07
2024-02-03T07:30:04.212Z,10.07
2024-02-03T07:31:04.703Z,10.09
2024-02-03T07:32:04.330Z,10.10
2024-02-03T07:33:03.585Z,10.10
2024-02-03T07:34:04.187Z,10.09
2024-02-03T07:35:04.892Z,10.10
2024-02-03T07:36:04.106Z,10.10
2024-02-03T07:37:04.082Z,10.11
2024-02-03T07:38:04.026Z,10.11
2024-02-03T07:39:04.528Z,10.12
2024-02-03T07:40:04.115Z,10.11
2024-02-03T07:41:04.605Z,10.10
2024-02-03T07:42:03.884Z,10.10
2024-02-03T07:43:04.295Z,10.09
2024-02-03T07:44:03.554Z,10.09
2024-02-03T07:45:04.309Z,10.10
2024-02-03T07:46:04.417Z,10.12
2024-02-03T07:47:03.941Z,10.13
2024-02-03T07:48:04.879Z,10.14
2024-02-03T07:49:04.147Z,10.14
2024-02-03T07:50:04.260Z,10.14
2024-02-03T07:51:04.124Z,10.16
2024-02-03T07:52:05.996Z,10.16
2024-02-03T07:53:03.381Z,10.16
2024-02-03T07:54:03.599Z,10.15
2024-02-03T07:55:04.128Z,10.14
2024-02-03T07:56:04.308Z,10.14
2024-02-03T07:57:03.842Z,10.16
2024-02-03T07:58:04.099Z,10.17
2024-02-03T07:59:04.117Z,10.18
2024-02-03T08:00:05.819Z,10.16
2024-02-03T08:01:04.731Z,10.15
2024-02-03T08:02:04.338Z,10.15
2024-02-03T08:03:04.106Z,10.16
2024-02-03T08:04:04.774Z,10.16
2024-02-03T08:05:04.804Z,10.17
2024-02-03T08:06:04.445Z,10.18
2024-02-03T08:07:05.358Z,10.19
2024-02-03T08:08:03.907Z,10.21
2024-02-03T08:09:04.344Z,10.22
2024-02-03T08:10:04.306Z,10.22
2024-02-03T08:11:03.892Z,10.23
2024-02-03T08:12:04.055Z,10.23
2024-02-03T08:13:04.818Z,10.23
2024-02-03T08:14:03.886Z,10.28
2024-02-03T08:15:04.545Z,10.27
2024-02-03T08:16:04.209Z,10.29
2024-02-03T08:17:03.965Z,10.31
2024-02-03T08:18:04.166Z,10.31
2024-02-03T08:19:04.428Z,10.32
2024-02-03T08:20:10.505Z,10.34
2024-02-03T08:21:04.656Z,10.36
2024-02-03T08:22:04.003Z,10.35
2024-02-03T08:23:04.169Z,10.35
2024-02-03T08:24:04.381Z,10.33
2024-02-03T08:25:04.260Z,10.32
2024-02-03T08:26:04.667Z,10.31
2024-02-03T08:27:03.595Z,10.32
2024-02-03T08:28:04.242Z,10.33
2024-02-03T08:29:03.882Z,10.34
2024-02-03T08:30:04.911Z,10.35
2024-02-03T08:31:04.484Z,10.34
2024-02-03T08:32:04.093Z,10.34
2024-02-03T08:33:04.086Z,10.34
2024-02-03T08:34:04.860Z,10.34
2024-02-03T08:36:07.761Z,10.35
2024-02-03T08:37:04.255Z,10.34
2024-02-03T08:38:04.578Z,10.34
2024-02-03T08:39:03.895Z,10.34
2024-02-03T08:40:04.342Z,10.34
2024-02-03T08:41:04.443Z,10.35
2024-02-03T08:42:03.665Z,10.36
2024-02-03T08:43:03.966Z,10.36
2024-02-03T08:44:03.918Z,10.36
2024-02-03T08:45:04.528Z,10.38
2024-02-03T08:46:04.670Z,10.38
2024-02-03T08:47:04.779Z,10.39
2024-02-03T08:48:04.030Z,10.39
2024-02-03T08:49:04.114Z,10.38
2024-02-03T08:50:04.418Z,10.41
2024-02-03T08:51:04.101Z,10.40
2024-02-03T08:52:04.526Z,10.41
2024-02-03T08:53:03.858Z,10.43
2024-02-03T08:54:04.097Z,10.45
2024-02-03T08:55:04.630Z,10.46
2024-02-03T08:56:03.637Z,10.47
2024-02-03T08:57:04.094Z,10.47
2024-02-03T08:58:04.528Z,10.47
2024-02-03T08:59:04.451Z,10.48
2024-02-03T09:00:06.246Z,10.51
2024-02-03T09:01:04.864Z,10.52
2024-02-03T09:02:04.206Z,10.51
2024-02-03T09:03:03.808Z,10.52
2024-02-03T09:04:04.517Z,10.54
2024-02-03T09:05:04.034Z,10.56
2024-02-03T09:06:04.725Z,10.57
2024-02-03T09:07:03.627Z,10.59
2024-02-03T09:08:03.991Z,10.60
2024-02-03T09:09:04.398Z,10.61
2024-02-03T09:10:04.054Z,10.61
2024-02-03T09:11:04.098Z,10.65
2024-02-03T09:12:04.429Z,10.67
2024-02-03T09:13:03.560Z,10.67
2024-02-03T09:14:04.056Z,10.66
2024-02-03T09:15:05.010Z,10.67
2024-02-03T09:16:03.862Z,10.68
2024-02-03T09:17:04.768Z,10.71
2024-02-03T09:18:04.018Z,10.73
2024-02-03T09:19:04.624Z,10.73
2024-02-03T09:20:05.497Z,10.74
2024-02-03T09:21:03.490Z,10.73
2024-02-03T09:22:04.469Z,10.73
2024-02-03T09:23:03.894Z,10.75
2024-02-03T09:24:04.054Z,10.75
2024-02-03T09:25:04.608Z,10.75
2024-02-03T09:26:04.130Z,10.76
2024-02-03T09:27:04.344Z,10.76
2024-02-03T09:28:03.841Z,10.76
2024-02-03T09:29:04.363Z,10.75
2024-02-03T09:30:04.387Z,10.75
2024-02-03T09:31:03.759Z,10.75
2024-02-03T09:32:04.452Z,10.76
2024-02-03T09:33:04.199Z,10.77
2024-02-03T09:34:04.338Z,10.79
2024-02-03T09:35:04.547Z,10.79
2024-02-03T09:36:03.649Z,10.81
2024-02-03T09:38:04.749Z,10.84
2024-02-03T09:39:04.153Z,10.84
2024-02-03T09:40:04.508Z,10.87
2024-02-03T09:41:04.256Z,10.90
2024-02-03T09:42:04.659Z,10.93
2024-02-03T09:43:04.905Z,10.94
2024-02-03T09:44:04.649Z,10.97
2024-02-03T09:45:06.678Z,10.99
2024-02-03T09:46:03.658Z,11.01
2024-02-03T09:47:04.416Z,11.02
2024-02-03T09:48:04.069Z,11.03
2024-02-03T09:49:04.466Z,11.02
2024-02-03T09:50:04.167Z,11.01
2024-02-03T09:51:05.102Z,11.01
2024-02-03T09:52:04.291Z,11.01
2024-02-03T09:53:04.322Z,11.02
2024-02-03T09:54:03.744Z,11.03
2024-02-03T09:55:04.100Z,11.05
2024-02-03T09:56:04.680Z,11.07
2024-02-03T09:57:04.128Z,11.07
2024-02-03T09:58:04.385Z,11.07
2024-02-03T09:59:03.977Z,11.08
2024-02-03T10:00:05.777Z,11.11
2024-02-03T10:01:04.393Z,11.21
2024-02-03T10:02:04.890Z,11.30
2024-02-03T10:03:03.648Z,11.31
2024-02-03T10:04:04.306Z,11.27
2024-02-03T10:05:04.931Z,11.26
2024-02-03T10:06:05.090Z,11.25
2024-02-03T10:07:04.322Z,11.26
2024-02-03T10:08:04.275Z,11.26
2024-02-03T10:09:04.785Z,11.24
2024-02-03T10:11:03.864Z,11.25
2024-02-03T10:12:04.453Z,11.23
2024-02-03T10:13:04.120Z,11.21
2024-02-03T10:14:04.586Z,11.23
2024-02-03T10:15:04.473Z,11.23
2024-02-03T10:16:04.407Z,11.22
2024-02-03T10:17:04.617Z,11.23
2024-02-03T10:18:09.158Z,11.24
2024-02-03T10:19:03.908Z,11.25
2024-02-03T10:20:04.696Z,11.29
2024-02-03T10:21:04.200Z,11.32
2024-02-03T10:22:03.807Z,11.32
2024-02-03T10:23:03.876Z,11.32
2024-02-03T10:24:03.813Z,11.33
2024-02-03T10:25:04.180Z,11.30
2024-02-03T10:26:04.306Z,11.30
2024-02-03T10:27:04.582Z,11.30
2024-02-03T10:28:04.321Z,11.33
2024-02-03T10:29:04.514Z,11.34
2024-02-03T10:30:04.625Z,11.34
2024-02-03T10:31:04.838Z,11.34
2024-02-03T10:32:04.491Z,11.31
2024-02-03T10:33:03.981Z,11.31
2024-02-03T10:34:04.220Z,11.31
2024-02-03T10:35:04.933Z,11.32
2024-02-03T10:36:04.192Z,11.36
2024-02-03T10:37:04.256Z,11.39
2024-02-03T10:38:04.421Z,11.39
2024-02-03T10:39:04.299Z,11.38
2024-02-03T10:40:03.972Z,11.38
2024-02-03T10:41:03.913Z,11.39
2024-02-03T10:42:04.272Z,11.40
2024-02-03T10:43:05.281Z,11.40
2024-02-03T10:44:04.499Z,11.42
2024-02-03T10:45:04.769Z,11.47
2024-02-03T10:46:04.561Z,11.47
2024-02-03T10:47:04.217Z,11.47
2024-02-03T10:48:05.326Z,11.50
2024-02-03T10:49:05.066Z,11.50
2024-02-03T10:50:04.429Z,11.51
2024-02-03T10:51:03.922Z,11.51
2024-02-03T10:52:04.421Z,11.56
2024-02-03T10:53:03.814Z,11.55
2024-02-03T10:54:04.179Z,11.53
2024-02-03T10:55:03.866Z,11.52
2024-02-03T10:56:04.700Z,11.53
2024-02-03T10:57:04.358Z,11.55
2024-02-03T10:58:03.846Z,11.54
2024-02-03T10:59:04.450Z,11.52
2024-02-03T11:00:06.338Z,11.52
2024-02-03T11:01:05.106Z,11.55
2024-02-03T11:02:05.261Z,11.59
2024-02-03T11:03:04.543Z,11.64
2024-02-03T11:04:04.162Z,11.62
2024-02-03T11:05:05.108Z,11.60
2024-02-03T11:06:04.168Z,11.60
2024-02-03T11:07:03.800Z,11.60
2024-02-03T11:08:03.824Z,11.61
2024-02-03T11:09:04.280Z,11.61
2024-02-03T11:10:04.052Z,11.65
2024-02-03T11:11:04.406Z,11.65
2024-02-03T11:12:03.879Z,11.68
2024-02-03T11:13:04.349Z,11.69
2024-02-03T11:14:03.819Z,11.68
2024-02-03T11:15:04.695Z,11.69
2024-02-03T11:16:04.853Z,11.68
2024-02-03T11:17:04.995Z,11.69
2024-02-03T11:18:04.295Z,11.68
2024-02-03T11:19:04.999Z,11.68
2024-02-03T11:20:04.851Z,11.68
2024-02-03T11:21:03.826Z,11.70
2024-02-03T11:22:03.751Z,11.71
2024-02-03T11:23:04.052Z,11.72
2024-02-03T11:24:04.589Z,11.71
2024-02-03T11:25:04.177Z,11.76
2024-02-03T11:26:03.780Z,11.78
2024-02-03T11:27:04.482Z,11.79
2024-02-03T11:28:03.737Z,11.82
2024-02-03T11:29:04.146Z,11.85
2024-02-03T11:30:05.039Z,11.83
2024-02-03T11:31:03.943Z,11.81
2024-02-03T11:32:04.472Z,11.82
2024-02-03T11:33:04.301Z,11.84
2024-02-03T11:34:05.293Z,11.83
2024-02-03T11:35:04.168Z,11.84
2024-02-03T11:36:04.700Z,11.87
2024-02-03T11:37:04.312Z,11.88
2024-02-03T11:38:04.393Z,11.88
2024-02-03T11:39:04.615Z,11.88
2024-02-03T11:40:04.483Z,11.90
2024-02-03T11:41:04.261Z,11.95
2024-02-03T11:42:04.184Z,11.98
2024-02-03T11:43:03.784Z,12.01
2024-02-03T11:44:04.309Z,12.01
2024-02-03T11:45:04.393Z,11.99
2024-02-03T11:46:03.885Z,12.01
2024-02-03T11:47:04.487Z,12.01
2024-02-03T11:48:04.208Z,12.01
2024-02-03T11:49:04.759Z,12.01
2024-02-03T11:50:04.074Z,12.09
2024-02-03T11:51:03.493Z,12.15
2024-02-03T11:52:03.474Z,12.14
2024-02-03T11:53:03.703Z,12.09
2024-02-03T11:54:04.025Z,12.10
2024-02-03T11:55:04.523Z,12.12
2024-02-03T11:56:03.736Z,12.09
2024-02-03T11:57:04.017Z,12.11
2024-02-03T11:58:04.365Z,12.12
2024-02-03T11:59:03.615Z,12.11
2024-02-03T12:00:05.910Z,12.10
2024-02-03T12:01:03.755Z,12.10
2024-02-03T12:02:05.110Z,12.13
2024-02-03T12:03:04.221Z,12.14
2024-02-03T12:04:04.614Z,12.12
2024-02-03T12:05:04.976Z,12.11
2024-02-03T12:06:03.871Z,12.13
2024-02-03T12:07:04.081Z,12.14
2024-02-03T12:08:04.589Z,12.14
2024-02-03T12:09:04.878Z,12.14
2024-02-03T12:10:03.953Z,12.13
2024-02-03T12:11:05.272Z,12.13
2024-02-03T12:12:03.587Z,12.13
2024-02-03T12:13:03.844Z,12.15
2024-02-03T12:14:03.726Z,12.16
2024-02-03T12:15:04.447Z,12.19
2024-02-03T12:16:03.825Z,12.25
2024-02-03T12:17:04.130Z,12.25
2024-02-03T12:18:04.126Z,12.27
2024-02-03T12:19:04.433Z,12.27
2024-02-03T12:20:04.808Z,12.28
2024-02-03T12:21:03.369Z,12.35
2024-02-03T12:22:03.774Z,12.39
2024-02-03T12:23:03.856Z,12.47
2024-02-03T12:24:04.095Z,12.52
2024-02-03T12:25:03.873Z,12.53
2024-02-03T12:26:04.093Z,12.49
2024-02-03T12:27:04.381Z,12.49
2024-02-03T12:28:04.058Z,12.48
2024-02-03T12:29:03.820Z,12.42
2024-02-03T12:30:05.356Z,12.51
2024-02-03T12:31:04.073Z,12.60
2024-02-03T12:32:04.481Z,12.58
2024-02-03T12:33:04.295Z,12.58
2024-02-03T12:34:04.564Z,12.60
2024-02-03T12:35:04.147Z,12.61
2024-02-03T12:36:04.223Z,12.55
2024-02-03T12:37:03.461Z,12.52
2024-02-03T12:38:04.651Z,12.50
2024-02-03T12:39:03.888Z,12.47
2024-02-03T12:40:04.594Z,12.43
2024-02-03T12:41:03.753Z,12.38
2024-02-03T12:42:03.961Z,12.39
2024-02-03T12:43:04.482Z,12.46
2024-02-03T12:44:03.554Z,12.49
2024-02-03T12:45:04.274Z,12.49
2024-02-03T12:46:04.766Z,12.49
2024-02-03T12:47:04.934Z,12.50
2024-02-03T12:48:03.983Z,12.52
2024-02-03T12:49:04.430Z,12.49
2024-02-03T12:50:05.271Z,12.46
2024-02-03T12:51:03.959Z,12.43
2024-02-03T12:52:04.570Z,12.41
2024-02-03T12:53:03.638Z,12.44
2024-02-03T12:54:04.014Z,12.46
2024-02-03T12:55:04.638Z,12.43
2024-02-03T12:56:03.953Z,12.42